sensor_id;sensor_type;location;lat;lon;timestamp;pressure;altitude;pressure_sealevel;temperature;humidity
9796;BME280;4937;42.680;27.704;2024-01-16T00:00:07;100104.06;;;3.11;76.07
9796;BME280;4937;42.680;27.704;2024-01-16T00:02:33;100083.41;;;3.14;75.70
9796;BME280;4937;42.680;27.704;2024-01-16T00:04:59;100081.34;;;3.25;74.52
9796;BME280;4937;42.680;27.704;2024-01-16T00:07:25;100081.34;;;3.28;75.16
9796;BME280;4937;42.680;27.704;2024-01-16T00:09:50;100085.16;;;3.34;74.60
9796;BME280;4937;42.680;27.704;2024-01-16T00:12:18;100071.91;;;3.36;75.40
9796;BME280;4937;42.680;27.704;2024-01-16T00:14:44;100083.47;;;3.47;75.35
9796;BME280;4937;42.680;27.704;2024-01-16T00:17:09;100081.47;;;3.55;74.72
9796;BME280;4937;42.680;27.704;2024-01-16T00:19:35;100078.78;;;3.51;74.14
9796;BME280;4937;42.680;27.704;2024-01-16T00:22:01;100081.84;;;3.57;75.14
9796;BME280;4937;42.680;27.704;2024-01-16T00:24:28;100083.28;;;3.68;74.83
9796;BME280;4937;42.680;27.704;2024-01-16T00:26:53;100087.53;;;3.69;74.29
9796;BME280;4937;42.680;27.704;2024-01-16T00:29:19;100077.44;;;3.66;73.78
9796;BME280;4937;42.680;27.704;2024-01-16T00:31:45;100069.66;;;3.68;73.85
9796;BME280;4937;42.680;27.704;2024-01-16T00:34:11;100078.63;;;3.65;73.21
9796;BME280;4937;42.680;27.704;2024-01-16T00:36:36;100076.63;;;3.69;74.79
9796;BME280;4937;42.680;27.704;2024-01-16T00:39:02;100067.19;;;3.77;73.98
9796;BME280;4937;42.680;27.704;2024-01-16T00:41:28;100062.84;;;3.83;73.56
9796;BME280;4937;42.680;27.704;2024-01-16T00:43:54;100058.94;;;3.84;74.01
9796;BME280;4937;42.680;27.704;2024-01-16T00:46:20;100061.19;;;3.89;74.89
9796;BME280;4937;42.680;27.704;2024-01-16T00:48:46;100062.41;;;3.88;74.01
9796;BME280;4937;42.680;27.704;2024-01-16T00:51:11;100060.81;;;3.91;75.32
9796;BME280;4937;42.680;27.704;2024-01-16T00:53:41;100061.94;;;3.93;72.68
9796;BME280;4937;42.680;27.704;2024-01-16T00:56:07;100065.50;;;3.90;72.84
9796;BME280;4937;42.680;27.704;2024-01-16T00:58:32;100069.44;;;3.86;73.92
9796;BME280;4937;42.680;27.704;2024-01-16T01:00:58;100059.72;;;3.85;74.45
9796;BME280;4937;42.680;27.704;2024-01-16T01:03:23;100046.41;;;3.90;73.86
9796;BME280;4937;42.680;27.704;2024-01-16T01:05:49;100045.94;;;3.95;75.05
9796;BME280;4937;42.680;27.704;2024-01-16T01:08:14;100055.63;;;4.00;75.28
9796;BME280;4937;42.680;27.704;2024-01-16T01:10:40;100057.91;;;4.05;74.88
9796;BME280;4937;42.680;27.704;2024-01-16T01:13:05;100055.91;;;4.09;73.58
9796;BME280;4937;42.680;27.704;2024-01-16T01:15:31;100062.91;;;4.10;75.15
9796;BME280;4937;42.680;27.704;2024-01-16T01:17:56;100057.75;;;4.16;75.07
9796;BME280;4937;42.680;27.704;2024-01-16T01:20:22;100052.31;;;4.16;74.72
9796;BME280;4937;42.680;27.704;2024-01-16T01:22:47;100046.44;;;4.17;75.54
9796;BME280;4937;42.680;27.704;2024-01-16T01:25:13;100051.53;;;4.15;75.42
9796;BME280;4937;42.680;27.704;2024-01-16T01:27:39;100052.25;;;4.19;74.56
9796;BME280;4937;42.680;27.704;2024-01-16T01:30:08;100038.50;;;4.26;76.46
9796;BME280;4937;42.680;27.704;2024-01-16T01:32:38;100043.56;;;4.28;75.57
9796;BME280;4937;42.680;27.704;2024-01-16T01:35:05;100043.94;;;4.30;76.61
9796;BME280;4937;42.680;27.704;2024-01-16T01:37:30;100030.59;;;4.35;77.09
9796;BME280;4937;42.680;27.704;2024-01-16T01:39:56;100041.78;;;4.44;77.95
9796;BME280;4937;42.680;27.704;2024-01-16T01:42:22;100038.28;;;4.44;76.87
9796;BME280;4937;42.680;27.704;2024-01-16T01:44:48;100038.28;;;4.44;77.01
9796;BME280;4937;42.680;27.704;2024-01-16T01:47:13;100034.72;;;4.47;75.72
9796;BME280;4937;42.680;27.704;2024-01-16T01:49:39;100033.19;;;4.46;76.39
9796;BME280;4937;42.680;27.704;2024-01-16T01:52:06;100028.88;;;4.45;75.94
9796;BME280;4937;42.680;27.704;2024-01-16T01:54:33;100032.88;;;4.40;76.12
9796;BME280;4937;42.680;27.704;2024-01-16T01:57:00;100035.91;;;4.46;75.70
9796;BME280;4937;42.680;27.704;2024-01-16T01:59:27;100035.66;;;4.37;74.88
9796;BME280;4937;42.680;27.704;2024-01-16T02:01:55;100030.31;;;4.26;75.82
9796;BME280;4937;42.680;27.704;2024-01-16T02:04:21;100016.72;;;4.23;76.21
9796;BME280;4937;42.680;27.704;2024-01-16T02:06:48;100025.44;;;4.14;74.78
9796;BME280;4937;42.680;27.704;2024-01-16T02:09:14;100018.84;;;4.12;75.54
9796;BME280;4937;42.680;27.704;2024-01-16T02:11:42;100002.31;;;3.95;75.40
9796;BME280;4937;42.680;27.704;2024-01-16T02:14:09;100001.91;;;3.97;75.51
9796;BME280;4937;42.680;27.704;2024-01-16T02:16:39;99999.94;;;3.97;76.99
9796;BME280;4937;42.680;27.704;2024-01-16T02:19:05;99994.63;;;3.87;78.77
9796;BME280;4937;42.680;27.704;2024-01-16T02:21:37;99996.03;;;3.98;78.56
9796;BME280;4937;42.680;27.704;2024-01-16T02:24:05;99996.63;;;4.13;78.69
9796;BME280;4937;42.680;27.704;2024-01-16T02:26:32;100003.16;;;4.19;79.48
9796;BME280;4937;42.680;27.704;2024-01-16T02:28:58;99997.19;;;4.28;77.86
9796;BME280;4937;42.680;27.704;2024-01-16T02:31:23;99993.94;;;4.36;79.13
9796;BME280;4937;42.680;27.704;2024-01-16T02:33:49;99998.13;;;4.44;78.05
9796;BME280;4937;42.680;27.704;2024-01-16T02:36:14;99994.91;;;4.49;78.05
9796;BME280;4937;42.680;27.704;2024-01-16T02:38:40;99996.00;;;4.55;78.08
9796;BME280;4937;42.680;27.704;2024-01-16T02:41:07;99996.34;;;4.57;77.36
9796;BME280;4937;42.680;27.704;2024-01-16T02:43:32;99990.47;;;4.59;77.53
9796;BME280;4937;42.680;27.704;2024-01-16T02:45:58;99991.28;;;4.56;74.79
9796;BME280;4937;42.680;27.704;2024-01-16T02:48:23;100000.38;;;4.49;75.39
9796;BME280;4937;42.680;27.704;2024-01-16T02:50:49;100004.78;;;4.40;75.86
9796;BME280;4937;42.680;27.704;2024-01-16T02:53:14;100003.00;;;4.30;76.37
9796;BME280;4937;42.680;27.704;2024-01-16T02:55:40;100004.25;;;4.25;76.08
9796;BME280;4937;42.680;27.704;2024-01-16T02:58:06;100003.16;;;4.19;76.46
9796;BME280;4937;42.680;27.704;2024-01-16T03:00:31;100005.97;;;4.12;76.39
9796;BME280;4937;42.680;27.704;2024-01-16T03:02:57;100014.56;;;4.11;76.54
9796;BME280;4937;42.680;27.704;2024-01-16T03:05:23;100017.78;;;4.06;76.81
9796;BME280;4937;42.680;27.704;2024-01-16T03:07:48;100008.91;;;3.98;76.78
9796;BME280;4937;42.680;27.704;2024-01-16T03:10:14;100007.41;;;3.93;75.97
9796;BME280;4937;42.680;27.704;2024-01-16T03:12:39;100011.84;;;3.80;77.77
9796;BME280;4937;42.680;27.704;2024-01-16T03:15:05;100023.16;;;3.79;77.73
9796;BME280;4937;42.680;27.704;2024-01-16T03:17:31;100034.06;;;3.79;77.71
9796;BME280;4937;42.680;27.704;2024-01-16T03:19:56;100038.63;;;3.89;78.59
9796;BME280;4937;42.680;27.704;2024-01-16T03:22:22;100040.84;;;3.97;80.17
9796;BME280;4937;42.680;27.704;2024-01-16T03:24:48;100033.81;;;4.00;79.10
9796;BME280;4937;42.680;27.704;2024-01-16T03:27:13;100034.03;;;4.13;79.33
9796;BME280;4937;42.680;27.704;2024-01-16T03:29:39;100028.75;;;4.29;81.91
9796;BME280;4937;42.680;27.704;2024-01-16T03:32:05;100046.00;;;4.49;82.09
9796;BME280;4937;42.680;27.704;2024-01-16T03:34:30;100043.09;;;4.59;81.04
9796;BME280;4937;42.680;27.704;2024-01-16T03:36:59;100048.34;;;4.73;80.82
9796;BME280;4937;42.680;27.704;2024-01-16T03:39:24;100048.84;;;4.91;80.69
9796;BME280;4937;42.680;27.704;2024-01-16T03:41:50;100051.38;;;5.02;79.89
9796;BME280;4937;42.680;27.704;2024-01-16T03:44:15;100043.78;;;5.13;79.05
9796;BME280;4937;42.680;27.704;2024-01-16T03:46:41;100038.16;;;5.24;78.14
9796;BME280;4937;42.680;27.704;2024-01-16T03:49:06;100048.88;;;5.34;78.61
9796;BME280;4937;42.680;27.704;2024-01-16T03:51:32;100042.78;;;5.46;77.66
9796;BME280;4937;42.680;27.704;2024-01-16T03:53:58;100050.88;;;5.53;77.56
9796;BME280;4937;42.680;27.704;2024-01-16T03:56:23;100056.34;;;5.53;74.52
9796;BME280;4937;42.680;27.704;2024-01-16T03:58:49;100061.84;;;5.50;75.19
9796;BME280;4937;42.680;27.704;2024-01-16T04:01:14;100075.13;;;5.51;73.47
9796;BME280;4937;42.680;27.704;2024-01-16T04:03:40;100061.03;;;5.53;73.59
9796;BME280;4937;42.680;27.704;2024-01-16T04:06:17;100053.91;;;5.59;73.77
9796;BME280;4937;42.680;27.704;2024-01-16T04:08:43;100066.38;;;5.60;74.14
9796;BME280;4937;42.680;27.704;2024-01-16T04:11:13;100080.81;;;5.60;73.85
9796;BME280;4937;42.680;27.704;2024-01-16T04:13:39;100101.97;;;5.56;72.83
9796;BME280;4937;42.680;27.704;2024-01-16T04:16:05;100089.91;;;5.54;74.59
9796;BME280;4937;42.680;27.704;2024-01-16T04:18:35;100081.34;;;5.52;75.41
9796;BME280;4937;42.680;27.704;2024-01-16T04:21:01;100091.53;;;5.51;74.03
9796;BME280;4937;42.680;27.704;2024-01-16T04:23:26;100093.78;;;5.56;75.74
9796;BME280;4937;42.680;27.704;2024-01-16T04:25:52;100108.28;;;5.53;73.73
9796;BME280;4937;42.680;27.704;2024-01-16T04:28:18;100119.97;;;5.54;73.22
9796;BME280;4937;42.680;27.704;2024-01-16T04:30:44;100109.41;;;5.56;73.91
9796;BME280;4937;42.680;27.704;2024-01-16T04:33:09;100119.69;;;5.48;75.00
9796;BME280;4937;42.680;27.704;2024-01-16T04:35:35;100127.13;;;5.48;73.08
9796;BME280;4937;42.680;27.704;2024-01-16T04:38:00;100120.91;;;5.47;74.25
9796;BME280;4937;42.680;27.704;2024-01-16T04:40:26;100122.34;;;5.52;75.34
9796;BME280;4937;42.680;27.704;2024-01-16T04:42:51;100129.81;;;5.51;75.16
9796;BME280;4937;42.680;27.704;2024-01-16T04:45:17;100130.47;;;5.59;75.13
9796;BME280;4937;42.680;27.704;2024-01-16T04:47:42;100137.81;;;5.62;73.90
9796;BME280;4937;42.680;27.704;2024-01-16T04:50:08;100147.16;;;5.64;74.92
9796;BME280;4937;42.680;27.704;2024-01-16T04:52:33;100148.28;;;5.67;73.37
9796;BME280;4937;42.680;27.704;2024-01-16T04:54:59;100158.44;;;5.66;74.28
9796;BME280;4937;42.680;27.704;2024-01-16T04:57:24;100167.06;;;5.65;74.47
9796;BME280;4937;42.680;27.704;2024-01-16T04:59:50;100162.38;;;5.65;73.45
9796;BME280;4937;42.680;27.704;2024-01-16T05:02:15;100167.06;;;5.65;73.55
9796;BME280;4937;42.680;27.704;2024-01-16T05:04:42;100162.78;;;5.64;73.56
9796;BME280;4937;42.680;27.704;2024-01-16T05:07:08;100163.66;;;5.57;72.86
9796;BME280;4937;42.680;27.704;2024-01-16T05:09:33;100165.75;;;5.50;73.68
9796;BME280;4937;42.680;27.704;2024-01-16T05:11:59;100165.81;;;5.46;73.42
9796;BME280;4937;42.680;27.704;2024-01-16T05:14:24;100169.44;;;5.40;75.21
9796;BME280;4937;42.680;27.704;2024-01-16T05:16:51;100175.09;;;5.29;74.12
9796;BME280;4937;42.680;27.704;2024-01-16T05:19:16;100180.25;;;5.24;74.56
9796;BME280;4937;42.680;27.704;2024-01-16T05:21:42;100191.53;;;5.26;74.86
9796;BME280;4937;42.680;27.704;2024-01-16T05:24:08;100186.53;;;5.21;73.23
9796;BME280;4937;42.680;27.704;2024-01-16T05:26:33;100185.78;;;5.20;73.26
9796;BME280;4937;42.680;27.704;2024-01-16T05:28:59;100188.91;;;5.19;72.55
9796;BME280;4937;42.680;27.704;2024-01-16T05:31:24;100198.59;;;5.23;71.83
9796;BME280;4937;42.680;27.704;2024-01-16T05:33:50;100189.50;;;5.30;71.24
9796;BME280;4937;42.680;27.704;2024-01-16T05:36:15;100210.44;;;5.40;70.60
9796;BME280;4937;42.680;27.704;2024-01-16T05:38:41;100214.94;;;5.53;71.38
9796;BME280;4937;42.680;27.704;2024-01-16T05:41:06;100231.56;;;5.62;69.40
9796;BME280;4937;42.680;27.704;2024-01-16T05:43:32;100230.66;;;5.69;70.45
9796;BME280;4937;42.680;27.704;2024-01-16T05:45:58;100248.16;;;5.75;68.98
9796;BME280;4937;42.680;27.704;2024-01-16T05:48:23;100250.78;;;5.82;71.13
9796;BME280;4937;42.680;27.704;2024-01-16T05:50:49;100256.81;;;5.96;71.09
9796;BME280;4937;42.680;27.704;2024-01-16T05:53:14;100266.25;;;6.15;73.74
9796;BME280;4937;42.680;27.704;2024-01-16T05:55:40;100271.59;;;6.22;70.21
9796;BME280;4937;42.680;27.704;2024-01-16T05:58:05;100271.09;;;6.27;68.30
9796;BME280;4937;42.680;27.704;2024-01-16T06:00:31;100277.06;;;6.22;66.75
9796;BME280;4937;42.680;27.704;2024-01-16T06:02:59;100272.78;;;6.21;66.58
9796;BME280;4937;42.680;27.704;2024-01-16T06:05:24;100291.47;;;6.26;67.29
9796;BME280;4937;42.680;27.704;2024-01-16T06:07:50;100295.75;;;6.27;66.52
9796;BME280;4937;42.680;27.704;2024-01-16T06:10:15;100301.94;;;6.31;67.01
9796;BME280;4937;42.680;27.704;2024-01-16T06:12:41;100307.84;;;6.30;66.72
9796;BME280;4937;42.680;27.704;2024-01-16T06:15:07;100314.44;;;6.32;67.67
9796;BME280;4937;42.680;27.704;2024-01-16T06:17:32;100320.97;;;6.38;67.87
9796;BME280;4937;42.680;27.704;2024-01-16T06:19:58;100336.09;;;6.46;68.12
9796;BME280;4937;42.680;27.704;2024-01-16T06:22:23;100345.31;;;6.56;68.44
9796;BME280;4937;42.680;27.704;2024-01-16T06:24:49;100343.16;;;6.67;67.67
9796;BME280;4937;42.680;27.704;2024-01-16T06:27:14;100348.91;;;6.72;67.64
9796;BME280;4937;42.680;27.704;2024-01-16T06:29:47;100354.38;;;6.72;68.53
9796;BME280;4937;42.680;27.704;2024-01-16T06:32:13;100357.97;;;6.89;67.79
9796;BME280;4937;42.680;27.704;2024-01-16T06:34:39;100368.25;;;7.05;66.92
9796;BME280;4937;42.680;27.704;2024-01-16T06:37:04;100372.25;;;7.20;66.37
9796;BME280;4937;42.680;27.704;2024-01-16T06:39:30;100376.88;;;7.42;65.98
9796;BME280;4937;42.680;27.704;2024-01-16T06:41:56;100380.19;;;7.69;65.13
9796;BME280;4937;42.680;27.704;2024-01-16T06:44:21;100381.50;;;7.97;64.78
9796;BME280;4937;42.680;27.704;2024-01-16T06:46:47;100376.22;;;8.22;63.76
9796;BME280;4937;42.680;27.704;2024-01-16T06:49:13;100398.72;;;8.49;63.14
9796;BME280;4937;42.680;27.704;2024-01-16T06:51:38;100388.13;;;8.64;62.19
9796;BME280;4937;42.680;27.704;2024-01-16T06:54:04;100383.97;;;8.88;61.71
9796;BME280;4937;42.680;27.704;2024-01-16T06:56:29;100389.53;;;9.13;61.57
9796;BME280;4937;42.680;27.704;2024-01-16T06:58:55;100394.31;;;9.25;59.84
9796;BME280;4937;42.680;27.704;2024-01-16T07:01:21;100399.88;;;9.09;60.79
9796;BME280;4937;42.680;27.704;2024-01-16T07:03:46;100405.00;;;8.94;61.30
9796;BME280;4937;42.680;27.704;2024-01-16T07:06:12;100408.00;;;8.84;61.23
9796;BME280;4937;42.680;27.704;2024-01-16T07:08:37;100400.19;;;8.54;62.46
9796;BME280;4937;42.680;27.704;2024-01-16T07:11:03;100405.06;;;8.62;63.30
9796;BME280;4937;42.680;27.704;2024-01-16T07:13:32;100416.41;;;8.64;62.13
9796;BME280;4937;42.680;27.704;2024-01-16T07:15:58;100420.31;;;8.63;62.75
9796;BME280;4937;42.680;27.704;2024-01-16T07:18:23;100432.19;;;8.60;62.38
9796;BME280;4937;42.680;27.704;2024-01-16T07:20:49;100435.38;;;8.59;62.22
9796;BME280;4937;42.680;27.704;2024-01-16T07:23:14;100444.38;;;8.43;62.86
9796;BME280;4937;42.680;27.704;2024-01-16T07:25:40;100447.09;;;8.11;64.93
9796;BME280;4937;42.680;27.704;2024-01-16T07:28:06;100451.53;;;8.05;64.62
9796;BME280;4937;42.680;27.704;2024-01-16T07:30:31;100460.56;;;8.06;64.89
9796;BME280;4937;42.680;27.704;2024-01-16T07:32:57;100473.59;;;8.18;64.56
9796;BME280;4937;42.680;27.704;2024-01-16T07:35:23;100475.09;;;8.22;63.38
9796;BME280;4937;42.680;27.704;2024-01-16T07:37:48;100479.56;;;8.32;62.81
9796;BME280;4937;42.680;27.704;2024-01-16T07:40:14;100483.78;;;8.37;62.55
9796;BME280;4937;42.680;27.704;2024-01-16T07:42:42;100488.78;;;8.42;62.33
9796;BME280;4937;42.680;27.704;2024-01-16T07:45:08;100491.78;;;8.47;61.72
9796;BME280;4937;42.680;27.704;2024-01-16T07:47:33;100500.63;;;8.55;61.35
9796;BME280;4937;42.680;27.704;2024-01-16T07:50:00;100510.59;;;8.65;60.65
9796;BME280;4937;42.680;27.704;2024-01-16T07:52:27;100513.28;;;8.68;61.01
9796;BME280;4937;42.680;27.704;2024-01-16T07:54:53;100524.63;;;8.70;60.85
9796;BME280;4937;42.680;27.704;2024-01-16T07:57:19;100534.91;;;8.66;61.58
9796;BME280;4937;42.680;27.704;2024-01-16T07:59:44;100524.88;;;8.76;61.20
9796;BME280;4937;42.680;27.704;2024-01-16T08:02:10;100539.19;;;8.67;61.31
9796;BME280;4937;42.680;27.704;2024-01-16T08:04:36;100564.44;;;8.62;60.98
9796;BME280;4937;42.680;27.704;2024-01-16T08:07:01;100575.41;;;8.46;60.93
9796;BME280;4937;42.680;27.704;2024-01-16T08:09:27;100582.19;;;8.42;61.11
9796;BME280;4937;42.680;27.704;2024-01-16T08:11:52;100599.72;;;8.28;60.57
9796;BME280;4937;42.680;27.704;2024-01-16T08:14:18;100620.28;;;8.20;60.40
9796;BME280;4937;42.680;27.704;2024-01-16T08:16:43;100624.94;;;8.03;59.73
9796;BME280;4937;42.680;27.704;2024-01-16T08:19:09;100637.31;;;7.92;60.56
9796;BME280;4937;42.680;27.704;2024-01-16T08:21:35;100645.69;;;7.85;60.74
9796;BME280;4937;42.680;27.704;2024-01-16T08:24:00;100649.84;;;7.93;60.64
9796;BME280;4937;42.680;27.704;2024-01-16T08:26:26;100670.84;;;8.03;60.17
9796;BME280;4937;42.680;27.704;2024-01-16T08:28:51;100664.16;;;8.04;60.04
9796;BME280;4937;42.680;27.704;2024-01-16T08:31:17;100659.50;;;8.01;59.64
9796;BME280;4937;42.680;27.704;2024-01-16T08:33:46;100679.41;;;8.05;59.68
9796;BME280;4937;42.680;27.704;2024-01-16T08:36:13;100683.66;;;8.10;59.08
9796;BME280;4937;42.680;27.704;2024-01-16T08:38:38;100682.13;;;8.28;58.89
9796;BME280;4937;42.680;27.704;2024-01-16T08:41:04;100681.56;;;8.56;57.94
9796;BME280;4937;42.680;27.704;2024-01-16T08:43:33;100687.25;;;8.65;57.96
9796;BME280;4937;42.680;27.704;2024-01-16T08:45:58;100687.84;;;8.92;56.67
9796;BME280;4937;42.680;27.704;2024-01-16T08:48:24;100694.91;;;9.10;55.73
9796;BME280;4937;42.680;27.704;2024-01-16T08:50:49;100682.91;;;9.36;55.05
9796;BME280;4937;42.680;27.704;2024-01-16T08:53:15;100682.47;;;9.69;53.14
9796;BME280;4937;42.680;27.704;2024-01-16T08:55:40;100681.31;;;10.28;51.38
9796;BME280;4937;42.680;27.704;2024-01-16T08:58:06;100688.09;;;10.11;50.21
9796;BME280;4937;42.680;27.704;2024-01-16T09:00:31;100685.06;;;10.34;50.06
9796;BME280;4937;42.680;27.704;2024-01-16T09:02:58;100694.38;;;10.52;49.28
9796;BME280;4937;42.680;27.704;2024-01-16T09:05:24;100688.03;;;12.03;47.21
9796;BME280;4937;42.680;27.704;2024-01-16T09:07:51;100704.63;;;12.67;43.62
9796;BME280;4937;42.680;27.704;2024-01-16T09:10:18;100710.50;;;14.52;39.86
9796;BME280;4937;42.680;27.704;2024-01-16T09:12:43;100727.91;;;16.48;35.13
9796;BME280;4937;42.680;27.704;2024-01-16T09:15:10;100731.00;;;17.72;32.38
9796;BME280;4937;42.680;27.704;2024-01-16T09:17:35;100730.66;;;19.02;29.73
9796;BME280;4937;42.680;27.704;2024-01-16T09:20:01;100739.88;;;19.76;29.30
9796;BME280;4937;42.680;27.704;2024-01-16T09:22:26;100759.19;;;19.74;28.37
9796;BME280;4937;42.680;27.704;2024-01-16T09:24:52;100729.38;;;18.26;30.24
9796;BME280;4937;42.680;27.704;2024-01-16T09:27:18;100740.25;;;16.09;32.87
9796;BME280;4937;42.680;27.704;2024-01-16T09:29:43;100758.59;;;14.58;35.09
9796;BME280;4937;42.680;27.704;2024-01-16T09:32:09;100757.06;;;13.23;37.70
9796;BME280;4937;42.680;27.704;2024-01-16T09:34:34;100764.22;;;12.25;40.58
9796;BME280;4937;42.680;27.704;2024-01-16T09:37:00;100751.66;;;11.40;41.96
9796;BME280;4937;42.680;27.704;2024-01-16T09:39:28;100770.03;;;11.05;42.90
9796;BME280;4937;42.680;27.704;2024-01-16T09:41:59;100764.94;;;10.50;44.11
9796;BME280;4937;42.680;27.704;2024-01-16T09:44:27;100759.44;;;10.05;45.73
9796;BME280;4937;42.680;27.704;2024-01-16T09:46:54;100743.69;;;9.89;46.54
9796;BME280;4937;42.680;27.704;2024-01-16T09:49:21;100771.16;;;9.77;46.36
9796;BME280;4937;42.680;27.704;2024-01-16T09:51:48;100776.84;;;9.70;46.57
9796;BME280;4937;42.680;27.704;2024-01-16T09:54:14;100772.09;;;9.54;47.85
9796;BME280;4937;42.680;27.704;2024-01-16T09:56:42;100785.06;;;9.38;48.58
9796;BME280;4937;42.680;27.704;2024-01-16T09:59:09;100790.56;;;9.38;47.83
9796;BME280;4937;42.680;27.704;2024-01-16T10:01:36;100788.66;;;9.35;47.85
9796;BME280;4937;42.680;27.704;2024-01-16T10:04:03;100797.91;;;9.44;47.88
9796;BME280;4937;42.680;27.704;2024-01-16T10:06:29;100803.72;;;9.46;47.54
9796;BME280;4937;42.680;27.704;2024-01-16T10:08:59;100796.78;;;9.58;47.15
9796;BME280;4937;42.680;27.704;2024-01-16T10:11:24;100805.97;;;9.51;47.12
9796;BME280;4937;42.680;27.704;2024-01-16T10:13:50;100804.84;;;9.33;46.23
9796;BME280;4937;42.680;27.704;2024-01-16T10:16:15;100797.38;;;9.49;46.85
9796;BME280;4937;42.680;27.704;2024-01-16T10:18:41;100795.53;;;9.43;45.51
9796;BME280;4937;42.680;27.704;2024-01-16T10:21:22;100810.38;;;9.65;49.89
9796;BME280;4937;42.680;27.704;2024-01-16T10:23:49;100815.88;;;9.65;45.22
9796;BME280;4937;42.680;27.704;2024-01-16T10:26:14;100812.47;;;9.61;45.59
9796;BME280;4937;42.680;27.704;2024-01-16T10:28:42;100820.44;;;9.55;45.09
9796;BME280;4937;42.680;27.704;2024-01-16T10:31:12;100823.03;;;9.27;44.21
9796;BME280;4937;42.680;27.704;2024-01-16T10:33:41;100828.47;;;9.30;45.07
9796;BME280;4937;42.680;27.704;2024-01-16T10:36:10;100825.59;;;9.18;45.06
9796;BME280;4937;42.680;27.704;2024-01-16T10:38:36;100831.41;;;9.04;45.15
9796;BME280;4937;42.680;27.704;2024-01-16T10:41:12;100831.94;;;8.95;44.86
9796;BME280;4937;42.680;27.704;2024-01-16T10:43:39;100835.00;;;8.81;44.93
9796;BME280;4937;42.680;27.704;2024-01-16T10:46:18;100839.56;;;9.07;45.45
9796;BME280;4937;42.680;27.704;2024-01-16T10:48:45;100851.81;;;10.26;42.94
9796;BME280;4937;42.680;27.704;2024-01-16T10:51:23;100855.94;;;11.20;41.06
9796;BME280;4937;42.680;27.704;2024-01-16T10:53:49;100858.69;;;11.73;38.71
9796;BME280;4937;42.680;27.704;2024-01-16T10:56:17;100872.63;;;12.08;36.11
9796;BME280;4937;42.680;27.704;2024-01-16T10:58:43;100870.31;;;11.81;36.48
9796;BME280;4937;42.680;27.704;2024-01-16T11:01:15;100865.94;;;11.55;36.39
9796;BME280;4937;42.680;27.704;2024-01-16T11:03:49;100875.38;;;12.54;35.99
9796;BME280;4937;42.680;27.704;2024-01-16T11:06:18;100877.19;;;13.78;32.93
9796;BME280;4937;42.680;27.704;2024-01-16T11:08:48;100876.06;;;14.55;31.12
9796;BME280;4937;42.680;27.704;2024-01-16T11:11:15;100873.41;;;15.15;29.40
9796;BME280;4937;42.680;27.704;2024-01-16T11:13:41;100877.72;;;15.94;27.69
9796;BME280;4937;42.680;27.704;2024-01-16T11:16:12;100881.16;;;16.68;27.06
9796;BME280;4937;42.680;27.704;2024-01-16T11:18:38;100881.25;;;17.41;25.36
9796;BME280;4937;42.680;27.704;2024-01-16T11:21:14;100877.25;;;18.06;24.10
9796;BME280;4937;42.680;27.704;2024-01-16T11:23:41;100881.63;;;19.08;22.56
9796;BME280;4937;42.680;27.704;2024-01-16T11:26:34;100891.06;;;19.93;21.89
9796;BME280;4937;42.680;27.704;2024-01-16T11:31:52;100882.47;;;20.02;20.83
9796;BME280;4937;42.680;27.704;2024-01-16T11:37:15;100892.53;;;21.64;18.56
9796;BME280;4937;42.680;27.704;2024-01-16T11:39:43;100895.38;;;21.92;18.47
9796;BME280;4937;42.680;27.704;2024-01-16T11:42:08;100898.50;;;22.74;16.84
9796;BME280;4937;42.680;27.704;2024-01-16T11:44:47;100907.28;;;23.11;17.04
9796;BME280;4937;42.680;27.704;2024-01-16T11:49:49;100904.56;;;23.76;15.80
9796;BME280;4937;42.680;27.704;2024-01-16T11:52:41;100901.22;;;23.77;16.19
9796;BME280;4937;42.680;27.704;2024-01-16T12:00:40;100924.44;;;23.07;15.84
9796;BME280;4937;42.680;27.704;2024-01-16T12:03:08;100938.19;;;23.16;16.79
9796;BME280;4937;42.680;27.704;2024-01-16T12:05:34;100940.41;;;23.34;16.47
9796;BME280;4937;42.680;27.704;2024-01-16T12:07:59;100933.16;;;23.04;16.83
9796;BME280;4937;42.680;27.704;2024-01-16T12:10:28;100941.63;;;23.44;16.00
9796;BME280;4937;42.680;27.704;2024-01-16T12:13:00;100940.00;;;23.14;16.26
9796;BME280;4937;42.680;27.704;2024-01-16T12:15:27;100948.31;;;22.84;16.69
9796;BME280;4937;42.680;27.704;2024-01-16T12:18:00;100961.19;;;22.30;17.84
9796;BME280;4937;42.680;27.704;2024-01-16T12:20:28;100986.72;;;22.10;17.92
9796;BME280;4937;42.680;27.704;2024-01-16T12:23:01;100996.94;;;21.96;18.74
9796;BME280;4937;42.680;27.704;2024-01-16T12:25:28;100984.09;;;21.62;19.24
9796;BME280;4937;42.680;27.704;2024-01-16T12:28:04;100992.16;;;21.21;19.68
9796;BME280;4937;42.680;27.704;2024-01-16T12:30:32;101015.53;;;20.59;20.16
9796;BME280;4937;42.680;27.704;2024-01-16T12:33:08;101006.34;;;19.97;20.97
9796;BME280;4937;42.680;27.704;2024-01-16T12:35:41;101019.19;;;19.17;21.97
9796;BME280;4937;42.680;27.704;2024-01-16T12:38:11;101025.69;;;18.39;23.27
9796;BME280;4937;42.680;27.704;2024-01-16T12:40:43;101028.78;;;17.54;25.80
9796;BME280;4937;42.680;27.704;2024-01-16T12:43:11;101038.16;;;16.62;28.74
9796;BME280;4937;42.680;27.704;2024-01-16T12:45:37;101045.81;;;15.65;27.77
9796;BME280;4937;42.680;27.704;2024-01-16T12:48:03;101044.53;;;15.12;30.66
9796;BME280;4937;42.680;27.704;2024-01-16T12:50:30;101049.59;;;14.47;30.14
9796;BME280;4937;42.680;27.704;2024-01-16T12:53:16;101064.72;;;14.03;31.77
9796;BME280;4937;42.680;27.704;2024-01-16T12:55:44;101080.47;;;13.62;31.64
9796;BME280;4937;42.680;27.704;2024-01-16T12:58:20;101096.22;;;13.19;31.59
9796;BME280;4937;42.680;27.704;2024-01-16T13:00:47;101098.53;;;12.57;32.90
9796;BME280;4937;42.680;27.704;2024-01-16T13:03:31;101093.41;;;12.31;31.95
9796;BME280;4937;42.680;27.704;2024-01-16T13:05:58;101118.31;;;11.89;32.86
9796;BME280;4937;42.680;27.704;2024-01-16T13:08:25;101117.16;;;11.74;33.20
9796;BME280;4937;42.680;27.704;2024-01-16T13:11:08;101118.03;;;11.39;34.71
9796;BME280;4937;42.680;27.704;2024-01-16T13:13:35;101126.06;;;11.34;34.47
9796;BME280;4937;42.680;27.704;2024-01-16T13:16:03;101126.84;;;11.34;33.80
9796;BME280;4937;42.680;27.704;2024-01-16T13:18:31;101139.56;;;11.60;33.52
9796;BME280;4937;42.680;27.704;2024-01-16T13:20:58;101134.03;;;11.60;34.05